Schedule Details

Flight Number: ASX322X
Departure: Budapest (LHBP) at 15:20Z
Arrival: Gdansk im. Lecha Walesy (EPGD) at 16:20Z

Weather Information
LHBP 180630Z 33005KT 3500 -SN BR SCT006 BKN013 OVC022 M00/M00 Q1022 R13L/61//95 R13R/62//95 BECMG SCT010 OVC030
EPGD 180630Z 29002KT 8000 SCT041 M03/M04 Q1026

Schedule Frequency

Route Map